Kokuryumaru — JL5701 — position and weather

sailwx.info

Track history (hours):
 
Tides and Currents Weather Stations Pressure Air Temp Water Temp Dewpoint Dewpoint Depression Visibility Wind Speed Wind Dir Waves Ship Positions

Kokuryumaru

Last reported at 2018-Jun-18 22:30 UTC. Time now 2018-Jun-18 22:43 UTC.
Position N 34°20' E 134°26'.

Length 109 m; draft 5 m.

Type: Cargo ship. MMSI: 431500862.

Date/timePositionNaut miles runAvg speedWind from/ knotsBaromVisibWave heightAir tempDewpointWater temp
2018-Jun-18 22:30N 34°20' E 134°26'915.1
2018-Jun-18 21:54N 34°23' E 134°15'5 0.1
2018-Jun-16 20:40N 34°25' E 134°10'315.5
2018-Jun-16 20:30N 34°25' E 134°13'815.2
2018-Jun-16 20:00N 34°22' E 134°22'816.7
2018-Jun-16 19:30N 34°19' E 134°31'815.0
2018-Jun-16 18:59N 34°14' E 134°39'715.0
2018-Jun-16 18:30N 34°09' E 134°44'816.0
2018-Jun-16 18:00N 34°02' E 134°51'815.9
2018-Jun-16 17:31N 33°57' E 134°57'815.5
2018-Jun-16 17:00N 33°51' E 135°03'2 0.0
2018-Jun-14 20:02N 33°49' E 135°03'014.1
2018-Jun-14 20:00N 33°49' E 135°02'815.1
2018-Jun-14 19:31N 33°55' E 134°56'814.9
2018-Jun-14 18:59N 34°01' E 134°50'1415.3
2018-Jun-14 18:02N 34°13' E 134°40'116.5
2018-Jun-14 17:59N 34°13' E 134°39'714.4
2018-Jun-14 17:30N 34°18' E 134°33'714.6
2018-Jun-14 17:00N 34°20' E 134°25'814.7
2018-Jun-14 16:29N 34°23' E 134°16'4 0.2
2018-Jun-13 21:43N 34°25' E 134°12'417.2
2018-Jun-13 21:30N 34°24' E 134°16'816.6
2018-Jun-13 21:00N 34°21' E 134°25'816.8
2018-Jun-13 20:30N 34°18' E 134°34'816.2
2018-Jun-13 20:00N 34°12' E 134°41'916.3
2018-Jun-13 19:28N 34°05' E 134°48'816.0
2018-Jun-13 18:58N 33°59' E 134°54'715.5
2018-Jun-13 18:30N 33°53' E 134°60'1015.1
2018-Jun-13 17:51N 33°46' E 135°07'3 0.1
2018-Jun-12 06:02N 33°44' E 135°10'215.1
2018-Jun-12 05:56N 33°45' E 135°08'614.8
2018-Jun-12 05:30N 33°50' E 135°03'714.8
2018-Jun-12 05:00N 33°55' E 134°58'814.8
2018-Jun-12 04:30N 34°01' E 134°52'815.0
2018-Jun-12 04:00N 34°07' E 134°46'816.3
2018-Jun-12 03:29N 34°13' E 134°40'714.1
2018-Jun-12 03:00N 34°17' E 134°33'815.5
2018-Jun-12 02:30N 34°20' E 134°25'  
2018-Jun-09 20:38N 34°27' E 134°04'217.4
2018-Jun-09 20:30N 34°26' E 134°07'917.6
2018-Jun-09 20:00N 34°24' E 134°17'917.2
2018-Jun-09 19:30N 34°20' E 134°26'916.8
2018-Jun-09 18:59N 34°17' E 134°36'816.9
2018-Jun-09 18:31N 34°11' E 134°43'816.6
2018-Jun-09 18:01N 34°04' E 134°49'816.2
2018-Jun-09 17:31N 33°58' E 134°55'816.0
2018-Jun-09 17:00N 33°52' E 135°01'815.8
2018-Jun-09 16:30N 33°46' E 135°08'  
Track history (hours):
 
Tides and Currents Weather Stations Pressure Air Temp Water Temp Dewpoint Dewpoint Depression Visibility Wind Speed Wind Dir Waves Ship Positions

Kokuryumaru

Last reported at 2018-Jun-18 22:30 UTC. Time now 2018-Jun-18 22:43 UTC.
Position N 34°20' E 134°26'.

Length 109 m; draft 5 m.

Type: Cargo ship. MMSI: 431500862.

Date/timePositionNaut miles runAvg speedWind from/ knotsBaromVisibWave heightAir tempDewpointWater temp
2018-Jun-18 22:30N 34°20' E 134°26'915.1
2018-Jun-18 21:54N 34°23' E 134°15'5 0.1
2018-Jun-16 20:40N 34°25' E 134°10'315.5
2018-Jun-16 20:30N 34°25' E 134°13'815.2
2018-Jun-16 20:00N 34°22' E 134°22'816.7
2018-Jun-16 19:30N 34°19' E 134°31'815.0
2018-Jun-16 18:59N 34°14' E 134°39'715.0
2018-Jun-16 18:30N 34°09' E 134°44'816.0
2018-Jun-16 18:00N 34°02' E 134°51'815.9
2018-Jun-16 17:31N 33°57' E 134°57'815.5
2018-Jun-16 17:00N 33°51' E 135°03'2 0.0
2018-Jun-14 20:02N 33°49' E 135°03'014.1
2018-Jun-14 20:00N 33°49' E 135°02'815.1
2018-Jun-14 19:31N 33°55' E 134°56'814.9
2018-Jun-14 18:59N 34°01' E 134°50'1415.3
2018-Jun-14 18:02N 34°13' E 134°40'116.5
2018-Jun-14 17:59N 34°13' E 134°39'714.4
2018-Jun-14 17:30N 34°18' E 134°33'714.6
2018-Jun-14 17:00N 34°20' E 134°25'814.7
2018-Jun-14 16:29N 34°23' E 134°16'4 0.2
2018-Jun-13 21:43N 34°25' E 134°12'417.2
2018-Jun-13 21:30N 34°24' E 134°16'816.6
2018-Jun-13 21:00N 34°21' E 134°25'816.8
2018-Jun-13 20:30N 34°18' E 134°34'816.2
2018-Jun-13 20:00N 34°12' E 134°41'916.3
2018-Jun-13 19:28N 34°05' E 134°48'816.0
2018-Jun-13 18:58N 33°59' E 134°54'715.5
2018-Jun-13 18:30N 33°53' E 134°60'1015.1
2018-Jun-13 17:51N 33°46' E 135°07'3 0.1
2018-Jun-12 06:02N 33°44' E 135°10'215.1
2018-Jun-12 05:56N 33°45' E 135°08'614.8
2018-Jun-12 05:30N 33°50' E 135°03'714.8
2018-Jun-12 05:00N 33°55' E 134°58'814.8
2018-Jun-12 04:30N 34°01' E 134°52'815.0
2018-Jun-12 04:00N 34°07' E 134°46'816.3
2018-Jun-12 03:29N 34°13' E 134°40'714.1
2018-Jun-12 03:00N 34°17' E 134°33'815.5
2018-Jun-12 02:30N 34°20' E 134°25'  
2018-Jun-09 20:38N 34°27' E 134°04'217.4
2018-Jun-09 20:30N 34°26' E 134°07'917.6
2018-Jun-09 20:00N 34°24' E 134°17'917.2
2018-Jun-09 19:30N 34°20' E 134°26'916.8
2018-Jun-09 18:59N 34°17' E 134°36'816.9
2018-Jun-09 18:31N 34°11' E 134°43'816.6
2018-Jun-09 18:01N 34°04' E 134°49'816.2
2018-Jun-09 17:31N 33°58' E 134°55'816.0
2018-Jun-09 17:00N 33°52' E 135°01'815.8
2018-Jun-09 16:30N 33°46' E 135°08'  

Dump ship's entire track history